sensor_id;sensor_type;location;lat;lon;timestamp;temperature;humidity
37322;DHT22;23697;48.684;9.032;2023-06-14T00:01:07;14.10;57.10
37322;DHT22;23697;48.684;9.032;2023-06-14T00:03:35;14.10;57.10
37322;DHT22;23697;48.684;9.032;2023-06-14T00:06:01;14.00;57.30
37322;DHT22;23697;48.684;9.032;2023-06-14T00:08:28;14.00;56.90
37322;DHT22;23697;48.684;9.032;2023-06-14T00:10:55;14.00;57.20
37322;DHT22;23697;48.684;9.032;2023-06-14T00:13:23;13.90;56.80
37322;DHT22;23697;48.684;9.032;2023-06-14T00:15:50;13.80;57.00
37322;DHT22;23697;48.684;9.032;2023-06-14T00:18:20;13.80;57.60
37322;DHT22;23697;48.684;9.032;2023-06-14T00:20:50;13.80;58.00
37322;DHT22;23697;48.684;9.032;2023-06-14T00:23:17;13.80;57.90
37322;DHT22;23697;48.684;9.032;2023-06-14T00:25:44;13.60;57.50
37322;DHT22;23697;48.684;9.032;2023-06-14T00:28:11;13.60;57.20
37322;DHT22;23697;48.684;9.032;2023-06-14T00:30:39;13.60;57.90
37322;DHT22;23697;48.684;9.032;2023-06-14T00:33:06;13.60;58.10
37322;DHT22;23697;48.684;9.032;2023-06-14T00:35:33;13.70;58.30
37322;DHT22;23697;48.684;9.032;2023-06-14T00:38:00;13.60;57.90
37322;DHT22;23697;48.684;9.032;2023-06-14T00:40:27;13.60;58.50
37322;DHT22;23697;48.684;9.032;2023-06-14T00:42:54;13.60;59.60
37322;DHT22;23697;48.684;9.032;2023-06-14T00:45:20;13.50;59.40
37322;DHT22;23697;48.684;9.032;2023-06-14T00:47:50;13.50;59.70
37322;DHT22;23697;48.684;9.032;2023-06-14T00:50:21;13.40;59.60
37322;DHT22;23697;48.684;9.032;2023-06-14T00:52:49;13.40;59.40
37322;DHT22;23697;48.684;9.032;2023-06-14T00:55:16;13.40;59.50
37322;DHT22;23697;48.684;9.032;2023-06-14T00:57:43;13.30;60.20
37322;DHT22;23697;48.684;9.032;2023-06-14T01:00:12;13.40;60.20
37322;DHT22;23697;48.684;9.032;2023-06-14T01:02:40;13.30;60.20
37322;DHT22;23697;48.684;9.032;2023-06-14T01:05:09;13.30;60.60
37322;DHT22;23697;48.684;9.032;2023-06-14T01:07:46;13.30;61.00
37322;DHT22;23697;48.684;9.032;2023-06-14T01:10:29;13.20;60.60
37322;DHT22;23697;48.684;9.032;2023-06-14T01:13:05;13.10;61.00
37322;DHT22;23697;48.684;9.032;2023-06-14T01:15:33;13.10;61.50
37322;DHT22;23697;48.684;9.032;2023-06-14T01:18:05;13.10;60.90
37322;DHT22;23697;48.684;9.032;2023-06-14T01:20:34;13.00;61.60
37322;DHT22;23697;48.684;9.032;2023-06-14T01:23:04;13.00;62.00
37322;DHT22;23697;48.684;9.032;2023-06-14T01:25:31;12.90;61.30
37322;DHT22;23697;48.684;9.032;2023-06-14T01:28:02;12.90;62.00
37322;DHT22;23697;48.684;9.032;2023-06-14T01:30:30;12.90;62.00
37322;DHT22;23697;48.684;9.032;2023-06-14T01:32:58;12.90;62.20
37322;DHT22;23697;48.684;9.032;2023-06-14T01:35:25;12.80;62.90
37322;DHT22;23697;48.684;9.032;2023-06-14T01:37:53;12.80;63.00
37322;DHT22;23697;48.684;9.032;2023-06-14T01:40:22;12.70;63.20
37322;DHT22;23697;48.684;9.032;2023-06-14T01:42:50;12.70;63.70
37322;DHT22;23697;48.684;9.032;2023-06-14T01:45:18;12.70;63.60
37322;DHT22;23697;48.684;9.032;2023-06-14T01:47:47;12.60;63.90
37322;DHT22;23697;48.684;9.032;2023-06-14T01:50:14;12.60;64.40
37322;DHT22;23697;48.684;9.032;2023-06-14T01:52:41;12.60;64.00
37322;DHT22;23697;48.684;9.032;2023-06-14T01:55:08;12.60;64.40
37322;DHT22;23697;48.684;9.032;2023-06-14T01:57:36;12.60;64.30
37322;DHT22;23697;48.684;9.032;2023-06-14T02:00:04;12.60;65.00
37322;DHT22;23697;48.684;9.032;2023-06-14T02:02:36;12.50;64.90
37322;DHT22;23697;48.684;9.032;2023-06-14T02:05:03;12.40;65.30
37322;DHT22;23697;48.684;9.032;2023-06-14T02:07:30;12.40;65.20
37322;DHT22;23697;48.684;9.032;2023-06-14T02:09:57;12.40;65.00
37322;DHT22;23697;48.684;9.032;2023-06-14T02:12:24;12.40;64.70
37322;DHT22;23697;48.684;9.032;2023-06-14T02:14:52;12.40;64.40
37322;DHT22;23697;48.684;9.032;2023-06-14T02:17:19;12.30;64.90
37322;DHT22;23697;48.684;9.032;2023-06-14T02:19:46;12.30;65.10
37322;DHT22;23697;48.684;9.032;2023-06-14T02:22:13;12.20;65.40
37322;DHT22;23697;48.684;9.032;2023-06-14T02:24:41;12.10;65.80
37322;DHT22;23697;48.684;9.032;2023-06-14T02:27:08;12.10;66.30
37322;DHT22;23697;48.684;9.032;2023-06-14T02:29:35;12.10;65.50
37322;DHT22;23697;48.684;9.032;2023-06-14T02:32:04;12.10;65.70
37322;DHT22;23697;48.684;9.032;2023-06-14T02:34:32;12.10;65.10
37322;DHT22;23697;48.684;9.032;2023-06-14T02:36:59;12.10;65.50
37322;DHT22;23697;48.684;9.032;2023-06-14T02:39:28;12.00;66.10
37322;DHT22;23697;48.684;9.032;2023-06-14T02:41:55;12.00;66.40
37322;DHT22;23697;48.684;9.032;2023-06-14T02:44:24;12.00;66.60
37322;DHT22;23697;48.684;9.032;2023-06-14T02:46:52;12.00;66.10
37322;DHT22;23697;48.684;9.032;2023-06-14T02:49:20;11.90;66.60
37322;DHT22;23697;48.684;9.032;2023-06-14T02:51:47;12.00;66.70
37322;DHT22;23697;48.684;9.032;2023-06-14T02:54:14;11.90;66.70
37322;DHT22;23697;48.684;9.032;2023-06-14T02:56:41;11.80;67.10
37322;DHT22;23697;48.684;9.032;2023-06-14T02:59:08;11.80;68.00
37322;DHT22;23697;48.684;9.032;2023-06-14T03:01:35;11.70;68.20
37322;DHT22;23697;48.684;9.032;2023-06-14T03:04:06;11.80;67.50
37322;DHT22;23697;48.684;9.032;2023-06-14T03:06:34;11.70;67.20
37322;DHT22;23697;48.684;9.032;2023-06-14T03:09:02;11.70;67.70
37322;DHT22;23697;48.684;9.032;2023-06-14T03:11:30;11.70;67.70
37322;DHT22;23697;48.684;9.032;2023-06-14T03:13:57;11.70;67.80
37322;DHT22;23697;48.684;9.032;2023-06-14T03:16:24;11.70;68.40
37322;DHT22;23697;48.684;9.032;2023-06-14T03:18:54;11.60;69.10
37322;DHT22;23697;48.684;9.032;2023-06-14T03:21:21;11.60;68.30
37322;DHT22;23697;48.684;9.032;2023-06-14T03:23:49;11.60;68.10
37322;DHT22;23697;48.684;9.032;2023-06-14T03:26:16;11.60;68.10
37322;DHT22;23697;48.684;9.032;2023-06-14T03:28:44;11.60;68.50
37322;DHT22;23697;48.684;9.032;2023-06-14T03:31:11;11.50;68.60
37322;DHT22;23697;48.684;9.032;2023-06-14T03:33:38;11.50;69.10
37322;DHT22;23697;48.684;9.032;2023-06-14T03:36:05;11.50;69.10
37322;DHT22;23697;48.684;9.032;2023-06-14T03:38:33;11.50;68.80
37322;DHT22;23697;48.684;9.032;2023-06-14T03:41:02;11.50;68.50
37322;DHT22;23697;48.684;9.032;2023-06-14T03:43:28;11.50;68.50
37322;DHT22;23697;48.684;9.032;2023-06-14T03:45:58;11.50;69.00
37322;DHT22;23697;48.684;9.032;2023-06-14T03:48:26;11.50;69.50
37322;DHT22;23697;48.684;9.032;2023-06-14T03:50:52;11.50;69.20
37322;DHT22;23697;48.684;9.032;2023-06-14T03:53:20;11.50;69.80
37322;DHT22;23697;48.684;9.032;2023-06-14T03:55:48;11.50;70.10
37322;DHT22;23697;48.684;9.032;2023-06-14T03:58:19;11.50;70.20
37322;DHT22;23697;48.684;9.032;2023-06-14T04:00:46;11.50;70.20
37322;DHT22;23697;48.684;9.032;2023-06-14T04:03:13;11.40;70.60
37322;DHT22;23697;48.684;9.032;2023-06-14T04:05:41;11.40;70.80
37322;DHT22;23697;48.684;9.032;2023-06-14T04:08:08;11.40;70.80
37322;DHT22;23697;48.684;9.032;2023-06-14T04:10:35;11.50;70.40
37322;DHT22;23697;48.684;9.032;2023-06-14T04:13:02;11.50;70.20
37322;DHT22;23697;48.684;9.032;2023-06-14T04:15:31;11.50;70.30
37322;DHT22;23697;48.684;9.032;2023-06-14T04:17:58;11.50;70.70
37322;DHT22;23697;48.684;9.032;2023-06-14T04:20:26;11.50;71.00
37322;DHT22;23697;48.684;9.032;2023-06-14T04:22:53;11.50;70.80
37322;DHT22;23697;48.684;9.032;2023-06-14T04:25:22;11.50;70.90
37322;DHT22;23697;48.684;9.032;2023-06-14T04:27:51;11.60;71.10
37322;DHT22;23697;48.684;9.032;2023-06-14T04:30:19;11.60;70.80
37322;DHT22;23697;48.684;9.032;2023-06-14T04:32:48;11.60;70.30
37322;DHT22;23697;48.684;9.032;2023-06-14T04:35:15;11.70;70.20
37322;DHT22;23697;48.684;9.032;2023-06-14T04:37:42;11.70;70.30
37322;DHT22;23697;48.684;9.032;2023-06-14T04:40:11;11.70;70.40
37322;DHT22;23697;48.684;9.032;2023-06-14T04:42:38;11.80;70.70
37322;DHT22;23697;48.684;9.032;2023-06-14T04:45:07;11.80;71.00
37322;DHT22;23697;48.684;9.032;2023-06-14T04:47:35;11.90;71.30
37322;DHT22;23697;48.684;9.032;2023-06-14T04:50:05;12.00;70.70
37322;DHT22;23697;48.684;9.032;2023-06-14T04:52:31;12.00;70.80
37322;DHT22;23697;48.684;9.032;2023-06-14T04:55:01;12.10;70.40
37322;DHT22;23697;48.684;9.032;2023-06-14T04:57:28;12.10;69.80
37322;DHT22;23697;48.684;9.032;2023-06-14T04:59:56;12.10;69.80
37322;DHT22;23697;48.684;9.032;2023-06-14T05:02:23;12.20;70.30
37322;DHT22;23697;48.684;9.032;2023-06-14T05:04:51;12.20;70.20
37322;DHT22;23697;48.684;9.032;2023-06-14T05:07:20;12.40;70.30
37322;DHT22;23697;48.684;9.032;2023-06-14T05:09:49;12.40;70.10
37322;DHT22;23697;48.684;9.032;2023-06-14T05:12:16;12.50;70.70
37322;DHT22;23697;48.684;9.032;2023-06-14T05:14:44;12.60;70.10
37322;DHT22;23697;48.684;9.032;2023-06-14T05:17:11;12.60;70.30
37322;DHT22;23697;48.684;9.032;2023-06-14T05:19:38;12.70;70.10
37322;DHT22;23697;48.684;9.032;2023-06-14T05:22:05;12.70;70.20
37322;DHT22;23697;48.684;9.032;2023-06-14T05:24:33;12.80;68.40
37322;DHT22;23697;48.684;9.032;2023-06-14T05:27:00;12.90;68.60
37322;DHT22;23697;48.684;9.032;2023-06-14T05:29:27;13.00;69.20
37322;DHT22;23697;48.684;9.032;2023-06-14T05:31:54;13.00;69.80
37322;DHT22;23697;48.684;9.032;2023-06-14T05:34:21;13.10;69.40
37322;DHT22;23697;48.684;9.032;2023-06-14T05:36:48;13.10;69.20
37322;DHT22;23697;48.684;9.032;2023-06-14T05:39:15;13.20;69.60
37322;DHT22;23697;48.684;9.032;2023-06-14T05:41:44;13.20;69.00
37322;DHT22;23697;48.684;9.032;2023-06-14T05:44:10;13.40;69.00
37322;DHT22;23697;48.684;9.032;2023-06-14T05:46:37;13.40;68.90
37322;DHT22;23697;48.684;9.032;2023-06-14T05:49:05;13.50;68.80
37322;DHT22;23697;48.684;9.032;2023-06-14T05:51:32;13.60;68.10
37322;DHT22;23697;48.684;9.032;2023-06-14T05:53:59;13.70;66.80
37322;DHT22;23697;48.684;9.032;2023-06-14T05:56:26;13.90;65.40
37322;DHT22;23697;48.684;9.032;2023-06-14T05:58:54;14.10;63.30
37322;DHT22;23697;48.684;9.032;2023-06-14T06:01:21;14.30;61.80
37322;DHT22;23697;48.684;9.032;2023-06-14T06:03:48;14.60;61.40
37322;DHT22;23697;48.684;9.032;2023-06-14T06:06:15;14.80;59.50
37322;DHT22;23697;48.684;9.032;2023-06-14T06:08:43;15.00;58.90
37322;DHT22;23697;48.684;9.032;2023-06-14T06:11:10;15.20;57.50
37322;DHT22;23697;48.684;9.032;2023-06-14T06:13:37;15.40;58.50
37322;DHT22;23697;48.684;9.032;2023-06-14T06:16:13;15.60;54.30
37322;DHT22;23697;48.684;9.032;2023-06-14T06:18:50;15.80;54.60
37322;DHT22;23697;48.684;9.032;2023-06-14T06:21:29;16.00;53.30
37322;DHT22;23697;48.684;9.032;2023-06-14T06:23:56;16.10;53.70
37322;DHT22;23697;48.684;9.032;2023-06-14T06:26:48;16.30;55.20
37322;DHT22;23697;48.684;9.032;2023-06-14T06:29:45;16.40;50.30
37322;DHT22;23697;48.684;9.032;2023-06-14T06:32:21;16.60;50.00
37322;DHT22;23697;48.684;9.032;2023-06-14T06:34:56;16.80;51.00
37322;DHT22;23697;48.684;9.032;2023-06-14T06:37:25;17.00;51.20
37322;DHT22;23697;48.684;9.032;2023-06-14T06:39:57;17.10;50.10
37322;DHT22;23697;48.684;9.032;2023-06-14T06:42:24;17.30;49.90
37322;DHT22;23697;48.684;9.032;2023-06-14T06:44:51;17.40;50.70
37322;DHT22;23697;48.684;9.032;2023-06-14T06:47:25;17.60;49.80
37322;DHT22;23697;48.684;9.032;2023-06-14T06:49:55;17.70;48.60
37322;DHT22;23697;48.684;9.032;2023-06-14T06:52:30;17.80;48.20
37322;DHT22;23697;48.684;9.032;2023-06-14T06:55:17;17.90;48.10
37322;DHT22;23697;48.684;9.032;2023-06-14T06:57:52;18.10;50.30
37322;DHT22;23697;48.684;9.032;2023-06-14T07:00:23;18.20;47.70
37322;DHT22;23697;48.684;9.032;2023-06-14T07:03:08;18.30;48.40
37322;DHT22;23697;48.684;9.032;2023-06-14T07:06:07;18.40;49.20
37322;DHT22;23697;48.684;9.032;2023-06-14T07:08:37;18.60;48.00
37322;DHT22;23697;48.684;9.032;2023-06-14T07:11:08;18.60;46.30
37322;DHT22;23697;48.684;9.032;2023-06-14T07:13:37;18.70;48.30
37322;DHT22;23697;48.684;9.032;2023-06-14T07:16:07;18.90;48.10
37322;DHT22;23697;48.684;9.032;2023-06-14T07:18:37;19.00;48.30
37322;DHT22;23697;48.684;9.032;2023-06-14T07:21:04;19.10;46.80
37322;DHT22;23697;48.684;9.032;2023-06-14T07:23:31;19.10;45.90
37322;DHT22;23697;48.684;9.032;2023-06-14T07:25:58;19.20;44.70
37322;DHT22;23697;48.684;9.032;2023-06-14T07:28:30;19.30;44.20
37322;DHT22;23697;48.684;9.032;2023-06-14T07:31:05;19.40;45.20
37322;DHT22;23697;48.684;9.032;2023-06-14T07:33:32;19.50;44.10
37322;DHT22;23697;48.684;9.032;2023-06-14T07:36:01;19.50;43.50
37322;DHT22;23697;48.684;9.032;2023-06-14T07:38:28;19.60;42.80
37322;DHT22;23697;48.684;9.032;2023-06-14T07:40:56;19.70;43.50
37322;DHT22;23697;48.684;9.032;2023-06-14T07:43:39;19.80;42.50
37322;DHT22;23697;48.684;9.032;2023-06-14T07:46:09;19.80;42.10
37322;DHT22;23697;48.684;9.032;2023-06-14T07:48:38;19.80;43.00
37322;DHT22;23697;48.684;9.032;2023-06-14T07:51:06;20.00;41.70
37322;DHT22;23697;48.684;9.032;2023-06-14T07:53:35;20.10;42.10
37322;DHT22;23697;48.684;9.032;2023-06-14T07:56:02;20.20;43.40
37322;DHT22;23697;48.684;9.032;2023-06-14T07:58:29;20.40;43.40
37322;DHT22;23697;48.684;9.032;2023-06-14T08:00:56;20.40;42.20
37322;DHT22;23697;48.684;9.032;2023-06-14T08:03:23;20.60;43.80
37322;DHT22;23697;48.684;9.032;2023-06-14T08:05:50;20.80;42.40
37322;DHT22;23697;48.684;9.032;2023-06-14T08:08:19;21.00;43.80
37322;DHT22;23697;48.684;9.032;2023-06-14T08:10:46;21.10;43.30
37322;DHT22;23697;48.684;9.032;2023-06-14T08:13:13;21.10;42.20
37322;DHT22;23697;48.684;9.032;2023-06-14T08:15:39;21.30;43.70
37322;DHT22;23697;48.684;9.032;2023-06-14T08:18:06;21.30;43.60
37322;DHT22;23697;48.684;9.032;2023-06-14T08:20:33;21.50;43.70
37322;DHT22;23697;48.684;9.032;2023-06-14T08:23:01;21.50;42.40
37322;DHT22;23697;48.684;9.032;2023-06-14T08:25:30;21.50;43.60
37322;DHT22;23697;48.684;9.032;2023-06-14T08:27:58;21.60;42.90
37322;DHT22;23697;48.684;9.032;2023-06-14T08:30:25;21.80;43.40
37322;DHT22;23697;48.684;9.032;2023-06-14T08:32:52;22.10;42.20
37322;DHT22;23697;48.684;9.032;2023-06-14T08:35:21;22.30;41.30
37322;DHT22;23697;48.684;9.032;2023-06-14T08:37:48;22.40;42.60
37322;DHT22;23697;48.684;9.032;2023-06-14T08:40:21;22.60;44.00
37322;DHT22;23697;48.684;9.032;2023-06-14T08:42:52;22.80;40.70
37322;DHT22;23697;48.684;9.032;2023-06-14T08:45:20;22.80;40.70
37322;DHT22;23697;48.684;9.032;2023-06-14T08:47:47;22.60;39.10
37322;DHT22;23697;48.684;9.032;2023-06-14T08:50:20;22.50;39.50
37322;DHT22;23697;48.684;9.032;2023-06-14T08:52:48;22.20;40.20
37322;DHT22;23697;48.684;9.032;2023-06-14T08:55:18;22.30;41.30
37322;DHT22;23697;48.684;9.032;2023-06-14T08:57:46;22.40;39.50
37322;DHT22;23697;48.684;9.032;2023-06-14T09:00:16;22.60;39.10
37322;DHT22;23697;48.684;9.032;2023-06-14T09:02:43;22.70;38.00
37322;DHT22;23697;48.684;9.032;2023-06-14T09:05:10;22.80;39.70
37322;DHT22;23697;48.684;9.032;2023-06-14T09:07:39;23.10;38.30
37322;DHT22;23697;48.684;9.032;2023-06-14T09:10:08;23.10;37.20
37322;DHT22;23697;48.684;9.032;2023-06-14T09:12:36;23.10;37.70
37322;DHT22;23697;48.684;9.032;2023-06-14T09:15:04;23.20;36.90
37322;DHT22;23697;48.684;9.032;2023-06-14T09:17:35;23.30;39.70
37322;DHT22;23697;48.684;9.032;2023-06-14T09:20:03;23.40;37.10
37322;DHT22;23697;48.684;9.032;2023-06-14T09:22:34;23.60;37.60
37322;DHT22;23697;48.684;9.032;2023-06-14T09:25:01;23.70;37.60
37322;DHT22;23697;48.684;9.032;2023-06-14T09:27:29;23.60;37.30
37322;DHT22;23697;48.684;9.032;2023-06-14T09:29:56;23.60;37.20
37322;DHT22;23697;48.684;9.032;2023-06-14T09:32:23;23.50;37.00
37322;DHT22;23697;48.684;9.032;2023-06-14T09:34:53;23.50;39.30
37322;DHT22;23697;48.684;9.032;2023-06-14T09:37:29;23.60;36.10
37322;DHT22;23697;48.684;9.032;2023-06-14T09:39:56;23.50;36.90
37322;DHT22;23697;48.684;9.032;2023-06-14T09:42:24;23.40;36.70
37322;DHT22;23697;48.684;9.032;2023-06-14T09:44:53;23.50;39.10
37322;DHT22;23697;48.684;9.032;2023-06-14T09:47:21;23.80;37.60
37322;DHT22;23697;48.684;9.032;2023-06-14T09:49:48;23.80;38.10
37322;DHT22;23697;48.684;9.032;2023-06-14T09:52:18;23.70;37.60
37322;DHT22;23697;48.684;9.032;2023-06-14T09:54:46;23.50;37.80
37322;DHT22;23697;48.684;9.032;2023-06-14T09:57:16;23.30;37.90
37322;DHT22;23697;48.684;9.032;2023-06-14T09:59:44;23.40;38.80
37322;DHT22;23697;48.684;9.032;2023-06-14T10:02:18;23.60;36.50
37322;DHT22;23697;48.684;9.032;2023-06-14T10:04:52;23.90;34.50
37322;DHT22;23697;48.684;9.032;2023-06-14T10:07:22;24.10;36.00
37322;DHT22;23697;48.684;9.032;2023-06-14T10:09:49;24.00;34.50
37322;DHT22;23697;48.684;9.032;2023-06-14T10:12:17;23.90;35.40
37322;DHT22;23697;48.684;9.032;2023-06-14T10:14:48;24.00;34.40
37322;DHT22;23697;48.684;9.032;2023-06-14T10:17:23;24.10;33.00
37322;DHT22;23697;48.684;9.032;2023-06-14T10:19:55;24.20;34.40
37322;DHT22;23697;48.684;9.032;2023-06-14T10:22:36;24.40;35.30
37322;DHT22;23697;48.684;9.032;2023-06-14T10:25:07;24.90;34.30
37322;DHT22;23697;48.684;9.032;2023-06-14T10:27:37;25.20;33.10
37322;DHT22;23697;48.684;9.032;2023-06-14T10:30:08;25.20;34.70
37322;DHT22;23697;48.684;9.032;2023-06-14T10:32:35;25.40;35.30
37322;DHT22;23697;48.684;9.032;2023-06-14T10:35:22;25.60;33.80
37322;DHT22;23697;48.684;9.032;2023-06-14T10:37:52;25.30;32.90
37322;DHT22;23697;48.684;9.032;2023-06-14T10:47:07;24.30;34.30
37322;DHT22;23697;48.684;9.032;2023-06-14T10:49:42;24.30;33.30
37322;DHT22;23697;48.684;9.032;2023-06-14T10:52:11;24.50;34.30
37322;DHT22;23697;48.684;9.032;2023-06-14T10:55:01;24.90;34.10
37322;DHT22;23697;48.684;9.032;2023-06-14T10:57:29;25.00;33.40
37322;DHT22;23697;48.684;9.032;2023-06-14T10:59:58;24.80;33.10
37322;DHT22;23697;48.684;9.032;2023-06-14T11:02:51;24.90;34.50
37322;DHT22;23697;48.684;9.032;2023-06-14T11:05:24;25.10;35.60
37322;DHT22;23697;48.684;9.032;2023-06-14T11:08:03;25.50;35.60
37322;DHT22;23697;48.684;9.032;2023-06-14T11:10:37;25.70;32.90
37322;DHT22;23697;48.684;9.032;2023-06-14T11:13:05;25.80;33.60
37322;DHT22;23697;48.684;9.032;2023-06-14T11:15:36;25.70;32.10
37322;DHT22;23697;48.684;9.032;2023-06-14T11:18:04;25.70;31.20
37322;DHT22;23697;48.684;9.032;2023-06-14T11:21:04;25.60;31.40
37322;DHT22;23697;48.684;9.032;2023-06-14T11:23:34;25.30;30.00
37322;DHT22;23697;48.684;9.032;2023-06-14T11:26:03;25.40;32.10
37322;DHT22;23697;48.684;9.032;2023-06-14T11:28:48;25.70;33.60
37322;DHT22;23697;48.684;9.032;2023-06-14T11:31:42;26.10;30.70
37322;DHT22;23697;48.684;9.032;2023-06-14T11:34:56;26.20;31.00
37322;DHT22;23697;48.684;9.032;2023-06-14T11:37:35;26.20;30.10
37322;DHT22;23697;48.684;9.032;2023-06-14T11:40:06;25.90;32.70
37322;DHT22;23697;48.684;9.032;2023-06-14T11:42:36;25.50;32.10
37322;DHT22;23697;48.684;9.032;2023-06-14T11:45:06;25.40;30.70
37322;DHT22;23697;48.684;9.032;2023-06-14T11:47:38;25.10;32.80
37322;DHT22;23697;48.684;9.032;2023-06-14T11:50:08;24.80;33.20
37322;DHT22;23697;48.684;9.032;2023-06-14T11:52:36;24.20;34.30
37322;DHT22;23697;48.684;9.032;2023-06-14T11:58:25;23.90;36.70
37322;DHT22;23697;48.684;9.032;2023-06-14T12:00:53;24.30;36.00
37322;DHT22;23697;48.684;9.032;2023-06-14T12:03:23;24.10;35.60
37322;DHT22;23697;48.684;9.032;2023-06-14T12:06:02;23.90;35.50
37322;DHT22;23697;48.684;9.032;2023-06-14T12:08:33;23.80;36.60
37322;DHT22;23697;48.684;9.032;2023-06-14T12:11:04;23.80;35.80
37322;DHT22;23697;48.684;9.032;2023-06-14T12:13:32;23.90;36.10
37322;DHT22;23697;48.684;9.032;2023-06-14T12:15:59;23.80;35.10
37322;DHT22;23697;48.684;9.032;2023-06-14T12:18:33;23.90;34.70
37322;DHT22;23697;48.684;9.032;2023-06-14T12:21:01;24.20;37.80
37322;DHT22;23697;48.684;9.032;2023-06-14T12:23:43;24.60;36.70
37322;DHT22;23697;48.684;9.032;2023-06-14T12:26:12;25.20;36.50
37322;DHT22;23697;48.684;9.032;2023-06-14T12:28:47;25.30;35.00
37322;DHT22;23697;48.684;9.032;2023-06-14T12:31:16;25.10;33.50
37322;DHT22;23697;48.684;9.032;2023-06-14T12:33:44;24.80;34.70
37322;DHT22;23697;48.684;9.032;2023-06-14T12:36:14;24.60;34.10
37322;DHT22;23697;48.684;9.032;2023-06-14T12:38:51;24.50;34.10
37322;DHT22;23697;48.684;9.032;2023-06-14T12:41:19;24.60;34.90
37322;DHT22;23697;48.684;9.032;2023-06-14T12:44:03;24.90;35.60
37322;DHT22;23697;48.684;9.032;2023-06-14T12:46:33;25.40;33.60
37322;DHT22;23697;48.684;9.032;2023-06-14T12:49:00;25.60;32.30
37322;DHT22;23697;48.684;9.032;2023-06-14T12:51:48;25.50;32.00
37322;DHT22;23697;48.684;9.032;2023-06-14T12:54:36;25.60;32.30
37322;DHT22;23697;48.684;9.032;2023-06-14T12:57:18;25.80;33.50
37322;DHT22;23697;48.684;9.032;2023-06-14T13:00:18;25.90;31.00
37322;DHT22;23697;48.684;9.032;2023-06-14T13:03:16;25.90;32.60
37322;DHT22;23697;48.684;9.032;2023-06-14T13:05:43;26.10;31.80
37322;DHT22;23697;48.684;9.032;2023-06-14T13:10:55;26.10;32.10
37322;DHT22;23697;48.684;9.032;2023-06-14T13:13:23;26.20;31.40
37322;DHT22;23697;48.684;9.032;2023-06-14T13:15:51;26.20;30.70
37322;DHT22;23697;48.684;9.032;2023-06-14T13:18:18;26.30;31.50
37322;DHT22;23697;48.684;9.032;2023-06-14T13:20:48;26.30;31.80
37322;DHT22;23697;48.684;9.032;2023-06-14T13:23:35;26.50;31.50
37322;DHT22;23697;48.684;9.032;2023-06-14T13:26:02;26.50;31.10
37322;DHT22;23697;48.684;9.032;2023-06-14T13:28:35;26.40;30.80
37322;DHT22;23697;48.684;9.032;2023-06-14T13:31:19;26.40;30.40
37322;DHT22;23697;48.684;9.032;2023-06-14T13:33:46;26.20;29.70
37322;DHT22;23697;48.684;9.032;2023-06-14T13:36:13;25.80;32.30
37322;DHT22;23697;48.684;9.032;2023-06-14T13:38:40;25.90;31.40
37322;DHT22;23697;48.684;9.032;2023-06-14T13:41:07;25.70;31.20
37322;DHT22;23697;48.684;9.032;2023-06-14T13:43:34;25.60;31.10
37322;DHT22;23697;48.684;9.032;2023-06-14T13:46:27;25.60;31.60
37322;DHT22;23697;48.684;9.032;2023-06-14T13:48:54;25.70;31.00
37322;DHT22;23697;48.684;9.032;2023-06-14T13:51:21;26.00;33.30
37322;DHT22;23697;48.684;9.032;2023-06-14T13:53:55;26.30;31.30
37322;DHT22;23697;48.684;9.032;2023-06-14T14:01:58;26.30;30.30
37322;DHT22;23697;48.684;9.032;2023-06-14T14:04:48;26.20;30.80
37322;DHT22;23697;48.684;9.032;2023-06-14T14:07:19;25.40;31.40
37322;DHT22;23697;48.684;9.032;2023-06-14T14:09:46;25.20;31.50
37322;DHT22;23697;48.684;9.032;2023-06-14T14:12:19;25.10;31.70
37322;DHT22;23697;48.684;9.032;2023-06-14T14:14:46;24.90;32.80
37322;DHT22;23697;48.684;9.032;2023-06-14T14:17:20;25.20;32.70
37322;DHT22;23697;48.684;9.032;2023-06-14T14:20:02;25.60;31.80
37322;DHT22;23697;48.684;9.032;2023-06-14T14:22:32;25.60;31.40
37322;DHT22;23697;48.684;9.032;2023-06-14T14:24:59;25.60;31.40
37322;DHT22;23697;48.684;9.032;2023-06-14T14:27:32;25.10;32.30
37322;DHT22;23697;48.684;9.032;2023-06-14T14:29:59;24.60;32.50
37322;DHT22;23697;48.684;9.032;2023-06-14T14:32:31;24.30;33.10
37322;DHT22;23697;48.684;9.032;2023-06-14T14:34:58;24.50;33.80
37322;DHT22;23697;48.684;9.032;2023-06-14T14:37:25;24.90;35.10
37322;DHT22;23697;48.684;9.032;2023-06-14T14:39:52;25.30;33.50
37322;DHT22;23697;48.684;9.032;2023-06-14T14:42:20;25.60;33.30
37322;DHT22;23697;48.684;9.032;2023-06-14T14:44:47;25.80;31.80
37322;DHT22;23697;48.684;9.032;2023-06-14T14:47:14;25.50;32.90
37322;DHT22;23697;48.684;9.032;2023-06-14T14:49:42;24.90;32.70
37322;DHT22;23697;48.684;9.032;2023-06-14T14:52:09;24.50;33.80
37322;DHT22;23697;48.684;9.032;2023-06-14T14:54:36;24.60;32.40
37322;DHT22;23697;48.684;9.032;2023-06-14T14:57:03;24.50;33.40
37322;DHT22;23697;48.684;9.032;2023-06-14T14:59:30;24.60;34.90
37322;DHT22;23697;48.684;9.032;2023-06-14T15:01:58;25.10;32.80
37322;DHT22;23697;48.684;9.032;2023-06-14T15:04:28;25.10;32.60
37322;DHT22;23697;48.684;9.032;2023-06-14T15:06:57;25.50;32.30
37322;DHT22;23697;48.684;9.032;2023-06-14T15:09:26;25.60;32.40
37322;DHT22;23697;48.684;9.032;2023-06-14T15:11:53;25.90;33.40
37322;DHT22;23697;48.684;9.032;2023-06-14T15:14:23;25.80;32.10
37322;DHT22;23697;48.684;9.032;2023-06-14T15:16:53;25.70;32.40
37322;DHT22;23697;48.684;9.032;2023-06-14T15:19:22;25.20;33.70
37322;DHT22;23697;48.684;9.032;2023-06-14T15:21:49;24.90;33.30
37322;DHT22;23697;48.684;9.032;2023-06-14T15:24:17;24.60;33.80
37322;DHT22;23697;48.684;9.032;2023-06-14T15:26:45;24.30;33.90
37322;DHT22;23697;48.684;9.032;2023-06-14T15:29:11;24.40;34.00
37322;DHT22;23697;48.684;9.032;2023-06-14T15:31:38;24.50;34.40
37322;DHT22;23697;48.684;9.032;2023-06-14T15:34:05;24.70;33.70
37322;DHT22;23697;48.684;9.032;2023-06-14T15:36:35;24.90;33.60
37322;DHT22;23697;48.684;9.032;2023-06-14T15:39:02;25.00;34.00
37322;DHT22;23697;48.684;9.032;2023-06-14T15:41:33;25.00;33.50
37322;DHT22;23697;48.684;9.032;2023-06-14T15:44:03;25.10;33.10
37322;DHT22;23697;48.684;9.032;2023-06-14T15:46:30;25.00;33.00
37322;DHT22;23697;48.684;9.032;2023-06-14T15:48:57;25.00;33.80
37322;DHT22;23697;48.684;9.032;2023-06-14T15:51:24;24.90;33.70
37322;DHT22;23697;48.684;9.032;2023-06-14T15:53:51;24.80;34.50
37322;DHT22;23697;48.684;9.032;2023-06-14T15:56:19;24.60;34.30
37322;DHT22;23697;48.684;9.032;2023-06-14T15:58:48;24.50;34.20
37322;DHT22;23697;48.684;9.032;2023-06-14T16:01:16;24.60;35.20
37322;DHT22;23697;48.684;9.032;2023-06-14T16:03:43;24.70;33.90
37322;DHT22;23697;48.684;9.032;2023-06-14T16:06:10;24.70;35.50